Carson Valley, Nevada Weather observations

Data are for 10 minute period ending at time listed.
 Day   Time   Solar   Ave.   Ave.  Ave.  Vector  Max.   Baro.   Total    
  of    of     Rad.   Air    Rel.  Wind   Wind   Wind  Press.  Precip.   
Year   Day            Temp.  Hum.  Speed  Dir.   Gust                    
2016   (PST)  Kw/m2    F      %     mph   deg.    mph    mb.     in.     
-------------------------------------------------------------------------
 338   12:00   0.51   41.8    33    2.8     5     5.9   864.2    0.00 
 338   12:10   0.50   42.6    33    4.2    21     7.0   864.2    0.00 
 338   12:20   0.50   43.2    33    4.4   353     8.1   864.2    0.00 
 338   12:30   0.49   43.6    32    2.0   302     3.9   864.0    0.00 
 338   12:40   0.49   44.1    32    1.3   282     3.9   863.8    0.00 
 338   12:50   0.48   44.7    32    2.7   267     4.7   863.7    0.00 
 338   13:00   0.47   45.7    31    1.8   282     3.6   863.7    0.00 
 338   13:10   0.46   46.5    31    1.7   313     3.8   863.7    0.00 
 338   13:20   0.44   46.9    30    1.6   312     4.8   863.7    0.00 
 338   13:30   0.43   48.2    30    1.3   172     2.6   863.7    0.00 
 338   13:40   0.41   48.1    31    3.5   233     5.6   863.6    0.00 
 338   13:50   0.40   48.5    31    3.0   203     6.3   863.5    0.00 
 338   14:00   0.38   48.5    32    3.7   207     6.1   863.5    0.00 
 338   14:10   0.36   49.3    31    2.1   197     4.1   863.5    0.00 
 338   14:20   0.33   50.0    31    1.5   207     3.6   863.5    0.00 
 338   14:30   0.31   49.9    30    2.0   234     3.9   863.5    0.00 
 338   14:40   0.29   50.6    30    1.6   218     3.1   863.5    0.00 
 338   14:50   0.27   50.0    31    2.7   229     4.5   863.5    0.00 
 338   15:00   0.24   50.1    32    2.6   214     4.7   863.5    0.00 
 338   15:10   0.21   50.5    31    2.2   208     3.9   863.4    0.00 
 338   15:20   0.19   50.5    31    3.0   204     4.0   863.3    0.00 
 338   15:30   0.16   51.0    31    3.1   184     4.1   863.2    0.00 
 338   15:40   0.14   50.7    32    2.2   183     3.3   863.2    0.00 
 338   15:50   0.10   51.6    31    1.6   194     2.1   863.2    0.00 
 338   16:00   0.02   49.2    33    1.1   182     1.9   863.2    0.00 
 338   16:10   0.01   43.1    44    2.1   261     3.3   863.0    0.00 
 338   16:20   0.01   39.8    51    2.1   238     3.4   862.9    0.00 
 338   16:30   0.01   37.4    57    3.8   198     4.7   862.7    0.00 
 338   16:40   0.01   36.7    60    3.1   195     3.7   862.6    0.00 
 338   16:50   0.00   35.2    64    3.6   222     4.3   862.7    0.00 
 338   17:00   0.00   33.3    65    2.3   240     3.7   862.8    0.00 
 338   17:10   0.00   31.8    69    1.9   193     4.8   862.8    0.00 
 338   17:20   0.00   30.5    75    2.1   166     3.0   862.8    0.00 
 338   17:30   0.00   30.3    73    1.3   195     2.7   862.9    0.00 
 338   17:40   0.00   27.7    76    3.8    49     5.8   862.9    0.00 
 338   17:50   0.00   26.1    80    4.5    61     5.4   862.8    0.00 
 338   18:00   0.00   27.1    79    3.4    71     4.4   862.9    0.00 
 338   18:10   0.00   26.6    79    2.6    83     3.7   863.1    0.00 
 338   18:20   0.00   26.5    74    2.3   118     3.4   863.2    0.00 
 338   18:30   0.00   24.5    75    3.0   193     4.5   863.2    0.00 
 338   18:40   0.00   25.5    75    2.5   245     3.9   863.3    0.00 
 338   18:50   0.00   25.8    74    0.8    31     2.1   863.3    0.00 
 338   19:00   0.00   23.4    79    2.3    65     3.7   863.4    0.00 
 338   19:10   0.00   25.9    78    1.2    32     3.8   863.4    0.00 
 338   19:20   0.00   31.0    68    1.8   187     2.6   863.3    0.00 
 338   19:30   0.00   29.0    71    3.9   140     4.8   863.3    0.00 
 338   19:40   0.00   27.4    74    4.2   118     5.0   863.4    0.00 
 338   19:50   0.00   27.8    71    3.0    97     3.9   863.4    0.00 
 338   20:00   0.00   25.8    75    3.1   130     5.1   863.4    0.00 
 338   20:10   0.00   25.5    77    2.5   185     4.0   863.4    0.00 
 338   20:20   0.00   24.7    82    1.9   202     3.1   863.3    0.00 
 338   20:30   0.00   23.8    85    1.7   165     2.9   863.3    0.00 
 338   20:40   0.00   23.8    86    3.1   197     4.2   863.4    0.00 
 338   20:50   0.00   23.7    86    3.3   205     4.5   863.4    0.00 
 338   21:00   0.00   23.5    85    1.3   197     3.7   863.4    0.00 
 338   21:10   0.00   22.7    85    0.0     0     0.0   863.4    0.00 
 338   21:20   0.00   22.5    87    0.0     0     0.0   863.4    0.00 
 338   21:30   0.00   23.1    88    0.0     0     0.0   863.4    0.00 
 338   21:40   0.00   23.5    88    0.0     0     0.0   863.4    0.00 
 338   21:50   0.00   24.0    88    0.1   143     0.9   863.5    0.00 
 338   22:00   0.00   24.3    88    0.2   143     0.9   863.5    0.00 
 338   22:10   0.00   23.6    84    2.9   128     4.7   863.4    0.00 
 338   22:20   0.00   21.8    84    3.0   118     4.0   863.3    0.00 
 338   22:30   0.00   21.3    84    2.2   112     3.4   863.3    0.00 
 338   22:40   0.00   20.4    84    2.0   114     3.7   863.2    0.00 
 338   22:50   0.00   19.7    86    2.5   138     3.0   863.1    0.00 
 338   23:00   0.00   19.9    87    2.4   189     3.1   863.0    0.00 
 338   23:10   0.00   19.8    87    2.8   246     3.3   863.0    0.00 
 338   23:20   0.00   19.6    89    2.3   296     3.4   863.0    0.00 
 338   23:30   0.00   19.0    89    2.4    52     3.4   862.9    0.00 
 338   23:40   0.00   19.2    90    2.6   347     3.7   862.9    0.00 
 338   23:50   0.00   19.8    88    2.6    35     4.0   863.0    0.00 
 339    0:00   0.00   18.9    88    2.3   134     4.9   862.9    0.00 
 339    0:10   0.00   18.1    89    3.2   155     4.7   862.8    0.00 
 339    0:20   0.00   18.4    90    1.7   110     2.6   862.8    0.00 
 339    0:30   0.00   19.5    90    1.4    53     3.2   862.8    0.00 
 339    0:40   0.00   18.8    90    0.4    71     2.1   862.7    0.00 
 339    0:50   0.00   19.3    90    1.9   241     3.4   862.7    0.00 
 339    1:00   0.00   20.5    91    1.5   246     2.1   862.5    0.00 
 339    1:10   0.00   21.3    91    1.7   169     2.1   862.3    0.00 
 339    1:20   0.00   22.2    91    0.8   104     2.2   862.3    0.00 
 339    1:30   0.00   22.7    91    0.8    47     1.8   862.2    0.00 
 339    1:40   0.00   22.8    90    0.4   329     1.5   862.2    0.00 
 339    1:50   0.00   23.1    90    0.2    87     1.4   862.1    0.00 
 339    2:00   0.00   23.2    89    0.2    87     1.2   862.1    0.00 
 339    2:10   0.00   23.6    89    0.0     0     0.0   862.1    0.00 
 339    2:20   0.00   24.2    88    0.9   171     3.0   862.0    0.00 
 339    2:30   0.00   24.0    89    2.0   125     2.7   861.9    0.00 
 339    2:40   0.00   24.2    88    2.9   181     5.2   861.8    0.00 
 339    2:50   0.00   23.5    88    3.3   195     4.5   861.8    0.00 
 339    3:00   0.00   22.5    89    2.6   190     3.7   861.7    0.00 
 339    3:10   0.00   21.6    89    0.8    90     2.0   861.6    0.00 
 339    3:20   0.00   21.4    90    1.8    40     2.5   861.5    0.00 
 339    3:30   0.00   21.1    91    2.2    35     3.1   861.5    0.00 
 339    3:40   0.00   20.8    91    2.7    58     3.7   861.4    0.00 
 339    3:50   0.00   19.8    91    3.4    76     3.9   861.3    0.00 
 339    4:00   0.00   19.5    91    2.2    91     3.5   861.1    0.00 
 339    4:10   0.00   19.0    91    1.6   349     4.4   861.1    0.00 
 339    4:20   0.00   19.0    91    1.7   105     3.7   861.0    0.00 
 339    4:30   0.00   18.2    90    2.2   244     5.2   861.1    0.00 
 339    4:40   0.00   18.4    92    1.9   282     2.7   861.1    0.00 
 339    4:50   0.00   18.1    92    2.2   255     5.6   860.9    0.00 
 339    5:00   0.00   18.6    92    1.2   178     2.4   860.8    0.00 
 339    5:10   0.00   18.8    94    1.3   195     3.5   860.9    0.00 
 339    5:20   0.00   18.2    92    2.2   126     4.4   860.9    0.00 
 339    5:30   0.00   16.3    91    2.6    67     4.1   860.9    0.00 
 339    5:40   0.00   17.0    92    1.7    79     3.4   860.9    0.00 
 339    5:50   0.00   17.1    92    1.9    29     3.3   860.9    0.00 
 339    6:00   0.00   19.0    92    1.9    88     3.2   860.9    0.00 
 339    6:10   0.00   17.9    90    1.9   352     6.3   860.8    0.00 
 339    6:20   0.00   16.9    91    2.6   262     4.4   860.7    0.00 
 339    6:30   0.00   17.9    92    3.5   257     5.3   860.7    0.00 
 339    6:40   0.00   17.6    91    2.6   165     3.2   860.6    0.00 
 339    6:50   0.00   16.4    90    1.5   110     3.3   860.7    0.00 
 339    7:00   0.01   16.4    91    1.5   116     2.9   860.7    0.00 
 339    7:10   0.01   16.8    91    2.3    36     3.4   860.8    0.00 
 339    7:20   0.01   17.1    91    1.2    56     3.2   860.9    0.00 
 339    7:30   0.04   18.2    91    2.0    94     3.7   860.8    0.00 
 339    7:40   0.04   19.7    90    1.6   158     5.4   860.9    0.00 
 339    7:50   0.05   20.2    90    2.3   196     3.5   860.9    0.00 
 339    8:00   0.06   21.2    90    2.5   142     3.8   860.9    0.00 
 339    8:10   0.08   21.8    90    1.0   320     2.9   860.9    0.00 
 339    8:20   0.12   22.6    89    1.1   293     2.3   860.9    0.00 
 339    8:30   0.16   24.4    89    1.2   137     2.9   860.9    0.00 
 339    8:40   0.16   26.7    87    1.0    98     2.3   860.9    0.00 
 339    8:50   0.19   27.9    85    2.4   127     5.6   860.9    0.00 
 339    9:00   0.29   29.5    83    1.3    32     3.0   860.9    0.00 
 339    9:10   0.36   32.3    79    1.6   100     4.8   860.8    0.00 
 339    9:20   0.33   33.0    76    3.2   140     5.3   860.8    0.00 
 339    9:30   0.31   33.6    75    3.7   188     5.9   860.7    0.00 
 339    9:40   0.19   33.9    73    2.4   213     5.0   860.6    0.00 
 339    9:50   0.14   33.6    75    2.1   228     4.9   860.3    0.00 
 339   10:00   0.14   33.7    76    2.1   238     4.0   860.3    0.00 
 339   10:10   0.14   34.1    74    0.7   241     2.7   860.2    0.00 
 339   10:20   0.14   34.8    74    1.1   175     3.3   860.0    0.00 
 339   10:30   0.15   34.9    73    2.2   249     5.5   859.9    0.00 
 339   10:40   0.15   35.2    72    1.9   192     4.8   859.7    0.00 
 339   10:50   0.17   35.8    73    3.2   274     7.2   859.5    0.00 
 339   11:00   0.19   37.0    71    4.6   137     8.6   859.2    0.00 
 339   11:10   0.23   37.7    70    4.0   348     7.2   859.2    0.00 
 339   11:20   0.26   38.1    68    6.3    19    11.3   858.9    0.00 
 339   11:30   0.37   40.0    60    5.4   352    10.9   858.5    0.00 
 339   11:40   0.43   42.8    55    3.1   123     7.8   858.1    0.00 
 339   11:50   0.31   43.8    53    5.3    38    11.5   857.9    0.00 

Return to Carson Valley graphs page.


Western Regional Climate Center,wrcc@dri.edu